Aérodrome :
LOGIN :

S'inscrire | Disclaimer

   EN    FR    IT 

 










Légende :    VFR   VFR Marginal   IFR   IFR Intensif   IFR Très Intensif
Visi : 
Plafond : 
>= 8 km
>= 3000ft
5 à 8 km
1000 à 3000 ft
1500m à 5 km
500 à 1000 ft
800 à 1500m
200 à 500 ft
< 800m
< 200 ft
Symboles :   Orages  Brouillard  Fortes neiges  Fortes précipitations  Vent > 20 kt
SIGMETs :   Divers  Orages  Givrage  Turbulence  Onde Orograph.  Cendres Volcan.






- Altitude de l'aérodrome : 390 ft
- Code IATA : NQY


EGHQ - Newquay

DERNIER METAR :
  • 130250Z AUTO 09004KT 9999 NCD 05/03 Q1032

METARs EXPIRÉS :
  • 130220Z AUTO 08004KT 9999 NCD 03/02 Q1032
  • 130150Z AUTO 06004KT 9999 NCD 06/04 Q1032
  • 130120Z AUTO 06003KT 9999 NCD 05/03 Q1032
  • 130050Z AUTO 10004KT 9999 NCD 05/03 Q1032
  • 130020Z AUTO 04002KT 9999 NCD 06/03 Q1032

TAF TAF EGHQ
Valide du 13 à 03h jusqu'au 13 à 12h UTC


130155Z 1303/1312 09004KT 9999 FEW022



MET'MAP, la Météo Aéronautique d'un coup d'oeil ! - Copyright ORBIFLY Décembre 2007 - Disclaimer

ORBIFLY MET'MAP TEAM :

Programmation & Développement : Alexandra Zaïnal
Sur une idée originale de : Baudouin d'Aumeries
Assistance à la programmation : Marc-Olivier Méhu
Soutien technique & logistique : Manuel Goepfert

Contact : metmap@orbifly.com




SOURCES & CREDITS :

   NOAA